createdAt,value
2018-01-10T00:01:41.393Z,4.10
2018-01-10T00:04:07.726Z,4.10
2018-01-10T00:06:34.085Z,4.10
2018-01-10T00:09:00.425Z,4.10
2018-01-10T00:11:27.534Z,4.00
2018-01-10T00:13:53.989Z,4.00
2018-01-10T00:16:20.361Z,4.10
2018-01-10T00:18:47.490Z,4.20
2018-01-10T00:21:15.598Z,4.50
2018-01-10T00:23:41.954Z,4.50
2018-01-10T00:26:08.372Z,4.70
2018-01-10T00:28:35.471Z,4.90
2018-01-10T00:31:02.591Z,5.00
2018-01-10T00:33:28.954Z,4.90
2018-01-10T00:35:56.125Z,5.00
2018-01-10T00:38:22.473Z,5.00
2018-01-10T00:40:48.825Z,5.00
2018-01-10T00:43:15.205Z,4.90
2018-01-10T00:45:42.294Z,4.60
2018-01-10T00:48:08.650Z,4.60
2018-01-10T00:50:34.993Z,4.50
2018-01-10T00:53:01.342Z,4.40
2018-01-10T00:55:28.461Z,4.20
2018-01-10T00:57:54.789Z,4.20
2018-01-10T01:00:21.190Z,4.10
2018-01-10T01:02:47.539Z,4.00
2018-01-10T01:05:13.891Z,3.90
2018-01-10T01:07:40.283Z,3.90
2018-01-10T01:10:06.634Z,3.90
2018-01-10T01:12:33.024Z,3.90
2018-01-10T01:14:59.401Z,3.90
2018-01-10T01:17:25.749Z,3.90
2018-01-10T01:19:52.106Z,3.90
2018-01-10T01:22:19.209Z,4.00
2018-01-10T01:24:45.585Z,4.00
2018-01-10T01:27:12.678Z,3.80
2018-01-10T01:29:39.035Z,3.80
2018-01-10T01:32:05.437Z,3.60
2018-01-10T01:34:31.778Z,3.50
2018-01-10T01:36:58.201Z,3.50
2018-01-10T01:39:24.549Z,3.50
2018-01-10T01:41:50.973Z,3.50
2018-01-10T01:44:17.342Z,3.50
2018-01-10T01:46:43.686Z,3.50
2018-01-10T01:49:10.062Z,3.50
2018-01-10T01:51:36.447Z,3.40
2018-01-10T01:54:04.184Z,3.40
2018-01-10T01:56:32.308Z,3.30
2018-01-10T01:58:58.722Z,3.20
2018-01-10T02:01:26.090Z,3.10
2018-01-10T02:03:53.195Z,3.00
2018-01-10T02:06:19.574Z,3.00
2018-01-10T02:08:45.929Z,3.00
2018-01-10T02:11:12.291Z,3.00
2018-01-10T02:13:39.394Z,2.80
2018-01-10T02:16:05.775Z,2.80
2018-01-10T02:18:32.878Z,2.70
2018-01-10T02:20:59.229Z,2.60
2018-01-10T02:23:25.565Z,2.60
2018-01-10T02:25:51.917Z,2.70
2018-01-10T02:28:19.081Z,2.70
2018-01-10T02:30:45.410Z,2.60
2018-01-10T02:33:11.761Z,2.60
2018-01-10T02:35:38.120Z,2.60
2018-01-10T02:38:04.499Z,2.60
2018-01-10T02:40:31.590Z,2.40
2018-01-10T02:42:57.934Z,2.40
2018-01-10T02:45:24.296Z,2.30
2018-01-10T02:47:51.445Z,2.20
2018-01-10T02:50:18.547Z,2.20
2018-01-10T02:52:44.890Z,2.20
2018-01-10T02:55:11.249Z,2.20
2018-01-10T02:57:38.362Z,2.20
2018-01-10T03:00:04.754Z,2.20
2018-01-10T03:02:31.103Z,2.30
2018-01-10T03:04:57.466Z,2.20
2018-01-10T03:07:23.789Z,2.30
2018-01-10T03:09:50.165Z,2.20
2018-01-10T03:12:17.283Z,2.20
2018-01-10T03:14:43.626Z,2.20
2018-01-10T03:17:10.285Z,2.30
2018-01-10T03:19:37.460Z,2.30
2018-01-10T03:22:03.857Z,2.30
2018-01-10T03:24:30.954Z,2.30
2018-01-10T03:26:57.330Z,2.30
2018-01-10T03:29:24.434Z,2.30
2018-01-10T03:31:50.784Z,2.20
2018-01-10T03:34:17.145Z,2.20
2018-01-10T03:36:44.254Z,2.10
2018-01-10T03:39:10.600Z,2.10
2018-01-10T03:41:36.962Z,2.10
2018-01-10T03:44:05.132Z,2.10
2018-01-10T03:46:32.254Z,2.10
2018-01-10T03:48:58.609Z,2.10
2018-01-10T03:51:25.714Z,2.00
2018-01-10T03:53:52.094Z,2.00
2018-01-10T03:56:19.179Z,1.90
2018-01-10T03:58:45.557Z,1.90
2018-01-10T04:01:11.915Z,2.00
2018-01-10T04:03:38.251Z,2.00
2018-01-10T04:06:04.587Z,2.00
2018-01-10T04:08:30.962Z,2.00
2018-01-10T04:10:57.337Z,2.00
2018-01-10T04:13:23.700Z,2.00
2018-01-10T04:15:50.063Z,2.00
2018-01-10T04:18:16.457Z,1.90
2018-01-10T04:20:42.794Z,1.90
2018-01-10T04:23:09.202Z,1.90
2018-01-10T04:25:35.554Z,1.80
2018-01-10T04:28:01.918Z,1.80
2018-01-10T04:30:28.275Z,1.80
2018-01-10T04:32:55.358Z,1.80
2018-01-10T04:35:21.701Z,1.70
2018-01-10T04:37:48.146Z,1.80
2018-01-10T04:40:14.530Z,1.80
2018-01-10T04:42:40.911Z,1.80
2018-01-10T04:45:07.259Z,1.70
2018-01-10T04:47:34.383Z,1.70
2018-01-10T04:50:00.742Z,1.70
2018-01-10T04:52:27.823Z,1.70
2018-01-10T04:54:54.850Z,1.70
2018-01-10T04:57:21.927Z,1.80
2018-01-10T04:59:48.278Z,1.80
2018-01-10T05:02:14.618Z,1.80
2018-01-10T05:04:40.978Z,1.90
2018-01-10T05:07:07.322Z,2.00
2018-01-10T05:09:34.428Z,2.10
2018-01-10T05:12:00.757Z,2.10
2018-01-10T05:14:27.082Z,2.10
2018-01-10T05:16:53.434Z,2.10
2018-01-10T05:19:19.775Z,2.20
2018-01-10T05:21:46.159Z,2.20
2018-01-10T05:24:12.514Z,2.30
2018-01-10T05:26:38.862Z,2.40
2018-01-10T05:29:05.198Z,2.40
2018-01-10T05:31:31.526Z,2.50
2018-01-10T05:33:58.881Z,2.60
2018-01-10T05:36:25.234Z,2.60
2018-01-10T05:38:51.627Z,2.60
2018-01-10T05:41:18.338Z,2.60
2018-01-10T05:43:44.679Z,2.60
2018-01-10T05:46:11.013Z,2.70
2018-01-10T05:48:37.356Z,2.60
2018-01-10T05:51:03.723Z,2.50
2018-01-10T05:53:30.784Z,2.40
2018-01-10T05:55:57.142Z,2.40
2018-01-10T05:58:23.491Z,2.50
2018-01-10T06:00:49.850Z,2.50
2018-01-10T06:03:16.958Z,2.50
2018-01-10T06:05:43.292Z,2.50
2018-01-10T06:08:09.644Z,2.50
2018-01-10T06:10:36.005Z,2.40
2018-01-10T06:13:03.098Z,2.30
2018-01-10T06:15:29.461Z,2.30
2018-01-10T06:17:56.550Z,2.30
2018-01-10T06:20:22.913Z,2.30
2018-01-10T06:22:49.247Z,2.40
2018-01-10T06:25:15.617Z,2.30
2018-01-10T06:27:42.725Z,2.00
2018-01-10T06:30:09.063Z,2.00
2018-01-10T06:32:35.422Z,2.00
2018-01-10T06:35:02.561Z,1.80
2018-01-10T06:37:28.925Z,1.80
2018-01-10T06:39:55.261Z,1.80
2018-01-10T06:42:21.918Z,1.90
2018-01-10T06:44:48.279Z,1.90
2018-01-10T06:47:14.656Z,1.90
2018-01-10T06:49:41.010Z,1.90
2018-01-10T06:52:07.346Z,1.90
2018-01-10T06:54:33.690Z,1.80
2018-01-10T06:57:00.047Z,1.70
2018-01-10T06:59:27.134Z,1.70
2018-01-10T07:01:53.489Z,1.60
2018-01-10T07:04:19.818Z,1.60
2018-01-10T07:06:46.183Z,1.60
2018-01-10T07:09:12.516Z,1.60
2018-01-10T07:11:38.869Z,1.60
2018-01-10T07:14:05.194Z,1.60
2018-01-10T07:16:32.290Z,1.70
2018-01-10T07:18:58.682Z,1.60
2018-01-10T07:21:25.069Z,1.60
2018-01-10T07:23:51.418Z,1.50
2018-01-10T07:26:18.514Z,1.50
2018-01-10T07:28:44.881Z,1.40
2018-01-10T07:31:11.254Z,1.40
2018-01-10T07:33:38.342Z,1.40
2018-01-10T07:36:05.444Z,1.30
2018-01-10T07:38:31.801Z,1.30
2018-01-10T07:40:58.172Z,1.20
2018-01-10T07:43:24.527Z,1.10
2018-01-10T07:45:51.653Z,1.20
2018-01-10T07:48:18.028Z,1.20
2018-01-10T07:50:44.375Z,1.40
2018-01-10T07:53:10.706Z,1.60
2018-01-10T07:55:37.135Z,1.80
2018-01-10T07:58:03.502Z,1.90
2018-01-10T08:00:29.956Z,2.00
2018-01-10T08:02:57.037Z,2.50
2018-01-10T08:05:23.381Z,2.50
2018-01-10T08:07:49.738Z,2.70
2018-01-10T08:10:16.083Z,2.90
2018-01-10T08:12:42.430Z,3.00
2018-01-10T08:15:09.526Z,3.10
2018-01-10T08:17:35.857Z,3.10
2018-01-10T08:20:02.206Z,3.10
2018-01-10T08:22:28.542Z,3.20
2018-01-10T08:24:54.873Z,3.20
2018-01-10T08:27:21.202Z,3.40
2018-01-10T08:29:47.834Z,3.40
2018-01-10T08:32:14.182Z,3.60
2018-01-10T08:34:40.513Z,3.60
2018-01-10T08:37:06.838Z,3.80
2018-01-10T08:39:33.201Z,4.00
2018-01-10T08:42:00.261Z,3.90
2018-01-10T08:44:26.616Z,3.90
2018-01-10T08:46:52.942Z,3.70
2018-01-10T08:49:19.274Z,3.50
2018-01-10T08:51:45.622Z,3.50
2018-01-10T08:54:11.991Z,3.60
2018-01-10T08:56:39.106Z,4.20
2018-01-10T08:59:06.465Z,4.20
2018-01-10T09:01:32.817Z,4.60
2018-01-10T09:03:59.180Z,4.90
2018-01-10T09:06:25.536Z,5.20
2018-01-10T09:08:51.875Z,5.40
2018-01-10T09:11:18.257Z,5.60
2018-01-10T09:13:45.356Z,6.00
2018-01-10T09:16:11.721Z,6.00
2018-01-10T09:18:38.887Z,6.10
2018-01-10T09:21:06.041Z,6.20
2018-01-10T09:23:32.367Z,6.10
2018-01-10T09:26:00.465Z,6.50
2018-01-10T09:28:26.842Z,6.50
2018-01-10T09:30:53.210Z,6.70
2018-01-10T09:33:19.570Z,6.90
2018-01-10T09:35:45.923Z,6.90
2018-01-10T09:38:12.266Z,7.00
2018-01-10T09:40:38.622Z,7.00
2018-01-10T09:43:04.980Z,7.10
2018-01-10T09:45:31.917Z,7.10
2018-01-10T09:47:58.254Z,7.20
2018-01-10T09:50:25.327Z,7.50
2018-01-10T09:52:51.671Z,7.40
2018-01-10T09:55:18.020Z,7.50
2018-01-10T09:57:45.101Z,7.80
2018-01-10T10:00:11.455Z,7.80
2018-01-10T10:02:37.810Z,7.80
2018-01-10T10:05:04.158Z,7.70
2018-01-10T10:07:31.264Z,7.70
2018-01-10T10:09:57.618Z,7.60
2018-01-10T10:12:23.966Z,7.60
2018-01-10T10:14:52.090Z,7.50
2018-01-10T10:17:18.457Z,7.40
2018-01-10T10:19:44.790Z,7.50
2018-01-10T10:22:11.154Z,7.50
2018-01-10T10:24:37.518Z,7.70
2018-01-10T10:27:03.872Z,7.60
2018-01-10T10:29:30.214Z,7.90
2018-01-10T10:31:56.546Z,7.80
2018-01-10T10:34:22.888Z,7.80
2018-01-10T10:36:50.032Z,8.10
2018-01-10T10:39:17.134Z,8.30
2018-01-10T10:41:43.483Z,8.20
2018-01-10T10:44:09.830Z,8.40
2018-01-10T10:46:36.177Z,8.40
2018-01-10T10:49:03.258Z,8.50
2018-01-10T10:51:29.602Z,8.50
2018-01-10T10:53:55.954Z,8.50
2018-01-10T10:56:22.297Z,8.50
2018-01-10T10:58:48.678Z,8.60
2018-01-10T11:01:15.024Z,8.80
2018-01-10T11:03:41.410Z,8.90
2018-01-10T11:06:08.490Z,9.00
2018-01-10T11:08:34.835Z,8.90
2018-01-10T11:11:01.171Z,9.10
2018-01-10T11:13:27.546Z,9.10
2018-01-10T11:15:54.627Z,8.80
2018-01-10T11:18:20.982Z,8.80
2018-01-10T11:20:47.330Z,9.00
2018-01-10T11:23:13.681Z,9.00
2018-01-10T11:25:41.195Z,9.20
2018-01-10T11:28:19.624Z,9.10
2018-01-10T11:30:45.994Z,9.20
2018-01-10T11:33:13.119Z,9.10
2018-01-10T11:35:39.454Z,9.10
2018-01-10T11:38:05.898Z,9.30
2018-01-10T11:40:32.987Z,9.60
2018-01-10T11:42:59.338Z,9.50
2018-01-10T11:45:25.677Z,9.50
2018-01-10T11:47:52.030Z,9.30
2018-01-10T11:50:18.431Z,9.20
2018-01-10T11:52:44.789Z,9.00
2018-01-10T11:55:11.137Z,9.00
2018-01-10T11:57:38.238Z,8.90
2018-01-10T12:00:04.615Z,8.90
2018-01-10T12:02:31.704Z,9.30
2018-01-10T12:04:58.035Z,9.30
2018-01-10T12:07:24.398Z,9.50
2018-01-10T12:09:50.730Z,9.60
2018-01-10T12:12:17.084Z,9.70
2018-01-10T12:14:44.194Z,9.70
2018-01-10T12:17:10.567Z,9.70
2018-01-10T12:19:37.635Z,10.00
2018-01-10T12:22:04.180Z,10.00
2018-01-10T12:24:30.546Z,10.00
2018-01-10T12:26:56.932Z,10.00
2018-01-10T12:29:23.306Z,10.10
2018-01-10T12:31:49.687Z,10.20
2018-01-10T12:34:16.046Z,10.30
2018-01-10T12:36:42.434Z,10.30
2018-01-10T12:39:09.542Z,10.50
2018-01-10T12:41:35.909Z,10.50
2018-01-10T12:44:03.000Z,10.80
2018-01-10T12:46:30.119Z,11.00
2018-01-10T12:48:56.465Z,10.90
2018-01-10T12:51:22.854Z,11.20
2018-01-10T12:53:49.189Z,11.60
2018-01-10T12:56:15.566Z,12.10
2018-01-10T12:58:41.934Z,12.40
2018-01-10T13:01:08.296Z,12.90
2018-01-10T13:03:35.398Z,14.00
2018-01-10T13:06:01.766Z,14.00
2018-01-10T13:08:28.851Z,14.70
2018-01-10T13:10:55.207Z,14.70
2018-01-10T13:13:21.565Z,14.80
2018-01-10T13:15:47.926Z,14.50
2018-01-10T13:18:14.254Z,14.40
2018-01-10T13:20:40.657Z,14.50
2018-01-10T13:23:07.015Z,14.50
2018-01-10T13:25:34.106Z,14.70
2018-01-10T13:28:00.471Z,14.60
2018-01-10T13:30:26.810Z,14.60
2018-01-10T13:32:53.913Z,14.70
2018-01-10T13:35:20.243Z,14.70
2018-01-10T13:37:46.709Z,14.90
2018-01-10T13:40:13.046Z,15.10
2018-01-10T13:42:39.469Z,15.00
2018-01-10T13:45:05.833Z,15.10
2018-01-10T13:47:32.930Z,15.50
2018-01-10T13:49:59.270Z,15.40
2018-01-10T13:52:25.648Z,15.00
2018-01-10T13:54:51.984Z,15.20
2018-01-10T13:57:18.346Z,15.10
2018-01-10T13:59:44.699Z,15.30
2018-01-10T14:02:11.127Z,15.30
2018-01-10T14:04:37.518Z,15.50
2018-01-10T14:07:04.593Z,16.10
2018-01-10T14:09:30.948Z,16.10
2018-01-10T14:11:57.327Z,16.40
2018-01-10T14:14:23.682Z,16.20
2018-01-10T14:16:50.079Z,16.10
2018-01-10T14:19:16.415Z,16.10
2018-01-10T14:21:42.785Z,16.10
2018-01-10T14:24:09.138Z,16.10
2018-01-10T14:26:35.491Z,16.20
2018-01-10T14:29:02.580Z,16.50
2018-01-10T14:31:28.943Z,16.50
2018-01-10T14:33:55.278Z,16.80
2018-01-10T14:36:21.639Z,16.80
2018-01-10T14:38:48.003Z,16.60
2018-01-10T14:41:14.345Z,16.40
2018-01-10T14:43:40.686Z,16.20
2018-01-10T14:46:07.022Z,16.10
2018-01-10T14:48:33.382Z,16.00
2018-01-10T14:51:00.478Z,15.80
2018-01-10T14:53:26.818Z,15.70
2018-01-10T14:55:53.162Z,15.70
2018-01-10T14:58:19.515Z,15.40
2018-01-10T15:00:46.613Z,14.80
2018-01-10T15:03:12.965Z,14.80
2018-01-10T15:05:39.313Z,14.50
2018-01-10T15:08:06.448Z,14.10
2018-01-10T15:10:32.790Z,14.10
2018-01-10T15:12:59.123Z,14.00
2018-01-10T15:15:25.481Z,13.70
2018-01-10T15:17:51.858Z,13.40
2018-01-10T15:20:18.209Z,13.00
2018-01-10T15:22:44.574Z,12.70
2018-01-10T15:25:10.907Z,12.20
2018-01-10T15:27:37.277Z,11.80
2018-01-10T15:30:03.640Z,11.40
2018-01-10T15:32:31.035Z,10.80
2018-01-10T15:34:57.386Z,10.00
2018-01-10T15:37:26.571Z,9.20
2018-01-10T15:39:52.938Z,9.20
2018-01-10T15:42:19.359Z,8.90
2018-01-10T15:44:46.246Z,8.60
2018-01-10T15:47:12.589Z,8.20
2018-01-10T15:49:38.956Z,7.50
2018-01-10T15:52:05.372Z,7.00
2018-01-10T15:54:31.742Z,6.60
2018-01-10T15:56:58.087Z,6.10
2018-01-10T15:59:25.187Z,5.60
2018-01-10T16:01:51.584Z,5.60
2018-01-10T16:04:18.663Z,5.50
2018-01-10T16:06:45.004Z,5.40
2018-01-10T16:09:11.358Z,5.40
2018-01-10T16:11:37.706Z,5.40
2018-01-10T16:14:04.187Z,5.20
2018-01-10T16:16:30.538Z,5.30
2018-01-10T16:18:56.885Z,5.10
2018-01-10T16:21:23.238Z,4.90
2018-01-10T16:23:50.382Z,4.60
2018-01-10T16:26:17.550Z,4.60
2018-01-10T16:28:43.886Z,4.50
2018-01-10T16:31:10.262Z,4.60
2018-01-10T16:33:36.594Z,4.50
2018-01-10T16:36:02.958Z,4.50
2018-01-10T16:38:30.088Z,4.40
2018-01-10T16:40:56.447Z,4.40
2018-01-10T16:43:23.524Z,4.30
2018-01-10T16:45:49.883Z,4.30
2018-01-10T16:48:16.234Z,4.20
2018-01-10T16:50:42.593Z,4.00
2018-01-10T16:53:09.959Z,3.90
2018-01-10T16:55:36.292Z,3.90
2018-01-10T16:58:03.674Z,4.00
2018-01-10T17:00:30.034Z,3.90
2018-01-10T17:02:56.375Z,4.00
2018-01-10T17:05:23.448Z,4.20
2018-01-10T17:07:49.777Z,4.10
2018-01-10T17:10:16.124Z,4.20
2018-01-10T17:12:42.475Z,4.20
2018-01-10T17:15:08.836Z,4.00
2018-01-10T17:17:35.170Z,3.90
2018-01-10T17:20:01.522Z,3.90
2018-01-10T17:22:28.636Z,4.00
2018-01-10T17:24:54.975Z,4.00
2018-01-10T17:27:21.321Z,4.00
2018-01-10T17:29:48.410Z,3.90
2018-01-10T17:32:14.775Z,3.90
2018-01-10T17:34:42.138Z,3.70
2018-01-10T17:37:08.488Z,3.60
2018-01-10T17:39:35.592Z,3.40
2018-01-10T17:42:01.941Z,3.40
2018-01-10T17:44:28.289Z,3.40
2018-01-10T17:46:55.404Z,3.30
2018-01-10T17:49:22.025Z,3.20
2018-01-10T17:51:48.377Z,3.20
2018-01-10T17:54:14.734Z,3.20
2018-01-10T17:56:41.838Z,3.10
2018-01-10T17:59:08.182Z,3.10
2018-01-10T18:01:34.723Z,3.10
2018-01-10T18:04:01.076Z,3.00
2018-01-10T18:06:27.439Z,2.90
2018-01-10T18:08:53.794Z,2.80
2018-01-10T18:11:20.152Z,2.90
2018-01-10T18:13:47.981Z,2.90
2018-01-10T18:16:14.336Z,2.90
2018-01-10T18:18:40.761Z,2.90
2018-01-10T18:21:26.615Z,2.90
2018-01-10T18:23:52.974Z,3.00
2018-01-10T18:26:19.364Z,3.00
2018-01-10T18:28:46.490Z,3.00
2018-01-10T18:31:12.837Z,3.00
2018-01-10T18:33:39.942Z,3.00
2018-01-10T18:36:06.288Z,3.00
2018-01-10T18:38:32.672Z,2.90
2018-01-10T18:40:59.067Z,2.90
2018-01-10T18:43:26.150Z,2.70
2018-01-10T18:45:52.505Z,2.70
2018-01-10T18:48:18.842Z,2.70
2018-01-10T18:50:45.890Z,2.70
2018-01-10T18:53:12.242Z,2.70
2018-01-10T18:55:38.573Z,2.70
2018-01-10T18:58:04.902Z,2.80
2018-01-10T19:00:31.254Z,2.70
2018-01-10T19:02:58.419Z,2.60
2018-01-10T19:05:24.773Z,2.60
2018-01-10T19:07:57.667Z,2.80
2018-01-10T19:10:24.006Z,2.80
2018-01-10T19:12:50.390Z,2.80
2018-01-10T19:15:16.767Z,2.80
2018-01-10T19:17:43.126Z,2.70
2018-01-10T19:20:09.480Z,2.60
2018-01-10T19:22:36.612Z,2.70
2018-01-10T19:25:03.334Z,2.60
2018-01-10T19:27:30.336Z,2.80
2018-01-10T19:29:56.715Z,2.70
2018-01-10T19:32:23.058Z,2.50
2018-01-10T19:34:49.446Z,2.60
2018-01-10T19:37:15.814Z,2.70
2018-01-10T19:39:42.178Z,2.70
2018-01-10T19:42:08.559Z,2.70
2018-01-10T19:44:34.954Z,2.80
2018-01-10T19:47:01.305Z,2.80
2018-01-10T19:49:27.686Z,2.80
2018-01-10T19:51:54.805Z,2.70
2018-01-10T19:54:21.141Z,2.70
2018-01-10T19:56:47.479Z,2.70
2018-01-10T19:59:13.820Z,2.70
2018-01-10T20:01:40.921Z,2.70
2018-01-10T20:04:07.278Z,2.70
2018-01-10T20:06:34.674Z,2.70
2018-01-10T20:09:01.038Z,2.70
2018-01-10T20:11:27.406Z,2.70
2018-01-10T20:13:53.754Z,2.70
2018-01-10T20:16:20.866Z,2.70
2018-01-10T20:18:47.223Z,2.60
2018-01-10T20:21:14.389Z,2.60
2018-01-10T20:23:40.748Z,2.60
2018-01-10T20:26:09.945Z,2.50
2018-01-10T20:28:36.318Z,2.50
2018-01-10T20:31:04.431Z,2.40
2018-01-10T20:33:30.801Z,2.40
2018-01-10T20:35:57.198Z,2.40
2018-01-10T20:38:23.567Z,2.40
2018-01-10T20:40:49.953Z,2.40
2018-01-10T20:43:16.305Z,2.40
2018-01-10T20:45:42.776Z,2.50
2018-01-10T20:48:09.158Z,2.50
2018-01-10T20:50:36.942Z,2.50
2018-01-10T20:53:03.384Z,2.60
2018-01-10T20:55:29.742Z,2.60
2018-01-10T20:57:56.110Z,2.60
2018-01-10T21:00:22.478Z,2.60
2018-01-10T21:02:48.826Z,2.50
2018-01-10T21:05:15.206Z,2.50
2018-01-10T21:07:41.580Z,2.50
2018-01-10T21:10:07.950Z,2.40
2018-01-10T21:12:35.049Z,2.30
2018-01-10T21:15:01.442Z,2.30
2018-01-10T21:17:27.783Z,2.30
2018-01-10T21:19:54.109Z,2.30
2018-01-10T21:22:21.470Z,2.30
2018-01-10T21:24:47.822Z,2.30
2018-01-10T21:27:14.207Z,2.30
2018-01-10T21:29:41.302Z,2.10
2018-01-10T21:32:07.682Z,2.10
2018-01-10T21:34:34.771Z,2.10
2018-01-10T21:37:01.140Z,2.10
2018-01-10T21:39:27.501Z,2.20
2018-01-10T21:41:54.598Z,2.20
2018-01-10T21:44:20.950Z,2.20
2018-01-10T21:46:47.306Z,2.10
2018-01-10T21:49:14.412Z,2.10
2018-01-10T21:51:40.799Z,2.10
2018-01-10T21:54:07.137Z,2.00
2018-01-10T21:56:33.495Z,2.00
2018-01-10T21:58:59.849Z,2.00
2018-01-10T22:01:26.202Z,2.00
2018-01-10T22:03:53.338Z,1.90
2018-01-10T22:06:19.698Z,1.80
2018-01-10T22:08:46.051Z,1.90
2018-01-10T22:11:12.399Z,1.90
2018-01-10T22:13:38.739Z,1.80
2018-01-10T22:16:05.088Z,1.80
2018-01-10T22:18:31.472Z,1.80
2018-01-10T22:20:57.822Z,1.70
2018-01-10T22:23:24.174Z,1.70
2018-01-10T22:25:51.518Z,1.70
2018-01-10T22:28:17.861Z,1.70
2018-01-10T22:30:44.226Z,1.80
2018-01-10T22:33:10.582Z,1.80
2018-01-10T22:35:36.962Z,1.70
2018-01-10T22:38:03.330Z,1.60
2018-01-10T22:40:29.706Z,1.60
2018-01-10T22:42:56.058Z,1.60
2018-01-10T22:45:22.418Z,1.60
2018-01-10T22:47:48.765Z,1.50
2018-01-10T22:50:15.108Z,1.50
2018-01-10T22:52:41.467Z,1.50
2018-01-10T22:55:07.810Z,1.60
2018-01-10T22:57:34.161Z,1.60
2018-01-10T23:00:00.520Z,1.60
2018-01-10T23:02:26.870Z,1.50
2018-01-10T23:04:53.281Z,1.40
2018-01-10T23:07:19.640Z,1.30
2018-01-10T23:09:46.002Z,1.10
2018-01-10T23:12:13.114Z,0.90
2018-01-10T23:14:39.478Z,0.90
2018-01-10T23:17:06.559Z,0.70
2018-01-10T23:19:33.754Z,0.70
2018-01-10T23:22:00.152Z,0.60
2018-01-10T23:24:27.538Z,0.70
2018-01-10T23:26:53.878Z,0.70
2018-01-10T23:29:20.292Z,0.70
2018-01-10T23:31:46.657Z,0.80
2018-01-10T23:34:13.778Z,0.90
2018-01-10T23:36:40.166Z,0.90
2018-01-10T23:39:06.557Z,0.90
2018-01-10T23:41:32.942Z,0.90
2018-01-10T23:43:59.302Z,0.90
2018-01-10T23:46:25.658Z,0.90
2018-01-10T23:48:52.019Z,0.90
2018-01-10T23:51:18.374Z,0.80
2018-01-10T23:53:44.738Z,0.90
2018-01-10T23:56:11.103Z,0.80
2018-01-10T23:58:38.229Z,0.80
